ナイロビ の空港の天気 - METARとTAF

ジョモ・ケニヤッタ国際空港 ( HKJK / NBO ) - ケニア ナイロビ
飛行場実況気象(Metar)
観測時間02/18 01:30 EAT (02/17 22:30 UTC)
風向・風速北北東 3m/s
視程10km以上
天気現象
なし
気温18℃
湿度68%
気圧1021hPa
METARHKJK 172230Z 02005KT CAVOK 18/12 Q1021 NOSIG
過去の天気等 Google飛行場航空写真 Wunderground天気予報

過去48時間のMETAR

飛行場予報(TAF)
発表時間: 2/17 20:00 EAT (2/17 17:00 UTC)
予報対象時間: 17日21時 EAT ~ 19日3時 EAT
風向・風速北 3m/s
視程10km以上
少しの雲 雲底高度 580m
18日11時 EAT ~ 18日14時 EAT に徐々に
風向・風速東北東 8m/s
少しの雲 雲底高度 850m
18日23時 EAT ~ 19日2時 EAT に徐々に
風向・風速北北東 3m/s
少しの雲 雲底高度 610m
TAF HKJK 171700Z 1718/1824 01005KT 9999 FEW019
BECMG 1808/1811 06015KT FEW028
BECMG 1820/1823 02005KT FEW020